Time;durP1;ratioP1;P1;durP2;ratioP2;P2;SDS_P1;SDS_P2;PMS_P1;PMS_P2;Temp;Humidity;BMP_temperature;BMP_pressure;BME280_temperature;BME280_humidity;BME280_pressure;Samples;Min_cycle;Max_cycle;Signal;HPM_P1;HPM_P2
2022/03/01 00:02:03;;;;;;;19.57;9.10;;;;;;;;;;5021151;28;20568;-66
2022/03/01 00:04:29;;;;;;;17.10;8.77;;;;;;;;;;5029766;28;20277;-67
2022/03/01 00:06:54;;;;;;;16.97;8.60;;;;;;;;;;5026776;28;20525;-65
2022/03/01 00:09:19;;;;;;;15.27;8.73;;;;;;;;;;5024579;28;20224;-67
2022/03/01 00:11:45;;;;;;;17.53;9.23;;;;;;;;;;5018461;28;20214;-66
2022/03/01 00:14:10;;;;;;;18.20;8.93;;;;;;;;;;5021428;28;20194;-66
2022/03/01 00:16:36;;;;;;;15.00;8.27;;;;;;;;;;5027891;28;20227;-66
2022/03/01 00:19:02;;;;;;;15.90;8.57;;;;;;;;;;5023374;28;20829;-66
2022/03/01 00:21:31;;;;;;;15.67;8.53;;;;;;;;;;5030788;28;20526;-66
2022/03/01 00:23:57;;;;;;;14.40;8.17;;;;;;;;;;5025977;28;20186;-66
2022/03/01 00:26:22;;;;;;;17.20;9.27;;;;;;;;;;5027976;28;20432;-67
2022/03/01 00:28:48;;;;;;;19.67;8.37;;;;;;;;;;5024550;28;20244;-67
2022/03/01 00:31:13;;;;;;;17.37;8.33;;;;;;;;;;5026838;28;20209;-67
2022/03/01 00:33:39;;;;;;;17.07;8.57;;;;;;;;;;5023284;28;20661;-67
2022/03/01 00:36:05;;;;;;;13.23;7.70;;;;;;;;;;5031374;28;20194;-67
2022/03/01 00:38:30;;;;;;;18.13;8.37;;;;;;;;;;5023793;28;20243;-67
2022/03/01 00:40:56;;;;;;;19.70;8.50;;;;;;;;;;5015920;28;20250;-67
2022/03/01 00:43:22;;;;;;;17.60;8.03;;;;;;;;;;5020286;28;20634;-67
2022/03/01 00:45:49;;;;;;;15.70;7.97;;;;;;;;;;5022304;28;20201;-67
2022/03/01 00:48:14;;;;;;;15.43;7.80;;;;;;;;;;5025896;28;20190;-67
2022/03/01 00:50:39;;;;;;;20.27;9.17;;;;;;;;;;5020866;28;20552;-66
2022/03/01 00:53:05;;;;;;;15.27;8.00;;;;;;;;;;5021483;28;20666;-66
2022/03/01 00:55:31;;;;;;;19.33;8.73;;;;;;;;;;5028997;28;20170;-67
2022/03/01 00:57:56;;;;;;;15.37;7.87;;;;;;;;;;5023038;28;20638;-67
2022/03/01 01:00:21;;;;;;;15.00;7.13;;;;;;;;;;5030904;28;20189;-67
2022/03/01 01:02:48;;;;;;;15.57;7.77;;;;;;;;;;5017483;28;20282;-67
2022/03/01 01:05:13;;;;;;;16.23;8.23;;;;;;;;;;5025623;28;20204;-67
2022/03/01 01:07:39;;;;;;;15.37;8.37;;;;;;;;;;5030101;28;20194;-67
2022/03/01 01:10:05;;;;;;;16.57;7.50;;;;;;;;;;5023087;28;20232;-67
2022/03/01 01:12:30;;;;;;;20.13;8.07;;;;;;;;;;5018766;28;20252;-67
2022/03/01 01:14:56;;;;;;;13.37;7.73;;;;;;;;;;5025464;28;20218;-67
2022/03/01 01:17:21;;;;;;;17.20;8.00;;;;;;;;;;5021724;28;20182;-67
2022/03/01 01:19:47;;;;;;;17.30;7.87;;;;;;;;;;5019916;28;20545;-67
2022/03/01 01:24:56;;;;;;;15.03;7.60;;;;;;;;;;5027090;28;20189;-67
2022/03/01 01:27:21;;;;;;;13.10;7.27;;;;;;;;;;5025349;28;20197;-67
2022/03/01 01:29:46;;;;;;;16.30;8.17;;;;;;;;;;5019300;28;20236;-67
2022/03/01 01:32:12;;;;;;;16.70;7.77;;;;;;;;;;5022360;28;20218;-67
2022/03/01 01:34:37;;;;;;;17.17;7.97;;;;;;;;;;5025348;28;20261;-67
2022/03/01 01:37:03;;;;;;;18.43;8.80;;;;;;;;;;5024264;28;20218;-66
2022/03/01 01:39:28;;;;;;;17.40;8.47;;;;;;;;;;5022723;28;20279;-66
2022/03/01 01:41:53;;;;;;;14.17;7.77;;;;;;;;;;5023855;28;20340;-66
2022/03/01 01:44:19;;;;;;;15.30;7.30;;;;;;;;;;5023559;28;20228;-66
2022/03/01 01:46:44;;;;;;;17.97;7.80;;;;;;;;;;5025153;28;20181;-66
2022/03/01 01:49:09;;;;;;;15.10;6.97;;;;;;;;;;5021697;28;20197;-66
2022/03/01 01:51:35;;;;;;;13.43;7.03;;;;;;;;;;5018708;28;20661;-66
2022/03/01 01:54:00;;;;;;;16.73;6.93;;;;;;;;;;5024035;28;20236;-66
2022/03/01 01:56:26;;;;;;;15.83;7.53;;;;;;;;;;5027155;28;20194;-66
2022/03/01 01:58:51;;;;;;;18.17;8.03;;;;;;;;;;5023155;28;20182;-67
2022/03/01 02:01:16;;;;;;;14.70;7.23;;;;;;;;;;5024478;28;20751;-67
2022/03/01 02:03:42;;;;;;;13.50;7.03;;;;;;;;;;5023493;28;20190;-67
2022/03/01 02:06:07;;;;;;;19.70;8.23;;;;;;;;;;5027330;28;20193;-67
2022/03/01 02:08:33;;;;;;;12.20;6.57;;;;;;;;;;5023288;28;21419;-67
2022/03/01 02:11:02;;;;;;;16.23;7.30;;;;;;;;;;5039123;28;20200;-66
2022/03/01 02:13:28;;;;;;;13.83;7.10;;;;;;;;;;5024433;28;20192;-66
2022/03/01 02:15:54;;;;;;;12.87;7.37;;;;;;;;;;5028788;28;20264;-66
2022/03/01 02:18:20;;;;;;;13.57;7.07;;;;;;;;;;5020354;28;20182;-66
2022/03/01 02:20:46;;;;;;;13.20;6.87;;;;;;;;;;5021832;28;20185;-66
2022/03/01 02:23:12;;;;;;;13.50;7.13;;;;;;;;;;5021567;28;20587;-66
2022/03/01 02:25:37;;;;;;;13.50;7.43;;;;;;;;;;5026334;28;20743;-66
2022/03/01 02:28:04;;;;;;;15.73;8.03;;;;;;;;;;5022346;28;20198;-66
2022/03/01 02:30:29;;;;;;;15.13;7.20;;;;;;;;;;5037773;28;20818;-66
2022/03/01 02:32:55;;;;;;;14.80;7.37;;;;;;;;;;5021256;28;20207;-66
2022/03/01 02:35:22;;;;;;;12.27;6.60;;;;;;;;;;5029971;28;20205;-67
2022/03/01 02:37:48;;;;;;;14.27;7.47;;;;;;;;;;5022901;28;20189;-67
2022/03/01 02:40:14;;;;;;;15.03;7.87;;;;;;;;;;5026882;28;20528;-66
2022/03/01 02:42:41;;;;;;;15.77;7.30;;;;;;;;;;5019697;28;20193;-67
2022/03/01 02:45:10;;;;;;;16.83;7.33;;;;;;;;;;5024936;28;20182;-66
2022/03/01 02:47:36;;;;;;;15.47;7.07;;;;;;;;;;5023836;28;20575;-67
2022/03/01 02:50:02;;;;;;;14.53;7.23;;;;;;;;;;5021597;28;20183;-66
2022/03/01 02:52:28;;;;;;;13.93;6.93;;;;;;;;;;5020128;28;20252;-66
2022/03/01 02:54:53;;;;;;;17.13;7.53;;;;;;;;;;5025605;28;20215;-67
2022/03/01 02:57:18;;;;;;;19.20;7.60;;;;;;;;;;5024597;28;20707;-67
2022/03/01 02:59:45;;;;;;;14.23;7.03;;;;;;;;;;5029052;28;20565;-66
2022/03/01 03:02:12;;;;;;;15.33;6.53;;;;;;;;;;5025376;28;20667;-67
2022/03/01 03:04:38;;;;;;;14.93;7.07;;;;;;;;;;5028868;28;20193;-67
2022/03/01 03:07:04;;;;;;;15.40;7.63;;;;;;;;;;5028126;28;20251;-67
2022/03/01 03:09:29;;;;;;;13.27;7.03;;;;;;;;;;5027147;28;20190;-65
2022/03/01 03:11:55;;;;;;;13.73;7.10;;;;;;;;;;5033763;28;20917;-66
2022/03/01 03:14:20;;;;;;;15.27;6.80;;;;;;;;;;5026015;28;20186;-67
2022/03/01 03:16:46;;;;;;;16.77;6.87;;;;;;;;;;5027454;28;20194;-67
2022/03/01 03:19:15;;;;;;;12.97;7.27;;;;;;;;;;5029473;28;20670;-67
2022/03/01 03:21:40;;;;;;;14.70;7.37;;;;;;;;;;5027004;28;20266;-67
2022/03/01 03:24:06;;;;;;;14.13;7.13;;;;;;;;;;5025760;28;20813;-66
2022/03/01 03:26:31;;;;;;;14.90;7.83;;;;;;;;;;5028392;28;20195;-68
2022/03/01 03:28:56;;;;;;;14.10;7.00;;;;;;;;;;5028506;28;20204;-67
2022/03/01 03:31:22;;;;;;;17.33;8.03;;;;;;;;;;5033709;28;20218;-67
2022/03/01 03:33:47;;;;;;;18.80;7.77;;;;;;;;;;5026654;28;20201;-67
2022/03/01 03:36:13;;;;;;;14.97;6.83;;;;;;;;;;5027884;28;20189;-67
2022/03/01 03:38:38;;;;;;;15.00;7.33;;;;;;;;;;5027612;28;20190;-67
2022/03/01 03:41:03;;;;;;;17.23;8.43;;;;;;;;;;5030569;28;20202;-67
2022/03/01 03:43:29;;;;;;;17.07;7.47;;;;;;;;;;5025011;28;20182;-67
2022/03/01 03:45:54;;;;;;;16.13;7.60;;;;;;;;;;5029375;28;20198;-67
2022/03/01 03:48:20;;;;;;;15.20;8.30;;;;;;;;;;5024368;28;20216;-67
2022/03/01 03:50:45;;;;;;;12.50;6.70;;;;;;;;;;5028297;28;20284;-67
2022/03/01 03:53:11;;;;;;;15.50;6.80;;;;;;;;;;5024570;28;20206;-67
2022/03/01 03:55:36;;;;;;;16.63;7.70;;;;;;;;;;5028136;28;20296;-67
2022/03/01 03:58:02;;;;;;;13.90;7.07;;;;;;;;;;5024333;28;20225;-67
2022/03/01 04:00:27;;;;;;;16.67;7.47;;;;;;;;;;5026745;28;20375;-67
2022/03/01 04:02:53;;;;;;;18.07;7.97;;;;;;;;;;5023297;28;20205;-67
2022/03/01 04:05:19;;;;;;;14.53;7.07;;;;;;;;;;5030014;28;20221;-67
2022/03/01 04:07:45;;;;;;;13.83;7.10;;;;;;;;;;5026269;28;20623;-67
2022/03/01 04:10:12;;;;;;;16.23;7.27;;;;;;;;;;5032509;28;20204;-67
2022/03/01 04:12:38;;;;;;;15.40;7.63;;;;;;;;;;5023989;28;20210;-66
2022/03/01 04:15:05;;;;;;;17.30;7.53;;;;;;;;;;5028297;28;20235;-67
2022/03/01 04:17:31;;;;;;;16.23;7.50;;;;;;;;;;5026577;28;20660;-66
2022/03/01 04:19:56;;;;;;;16.70;7.70;;;;;;;;;;5023133;28;20182;-66
2022/03/01 04:22:22;;;;;;;16.23;8.40;;;;;;;;;;5025243;28;20674;-66
2022/03/01 04:24:47;;;;;;;13.10;7.20;;;;;;;;;;5029057;28;20178;-66
2022/03/01 04:27:12;;;;;;;15.70;7.63;;;;;;;;;;5024860;28;20297;-66
2022/03/01 04:29:38;;;;;;;16.90;8.40;;;;;;;;;;5030938;28;20239;-66
2022/03/01 04:32:03;;;;;;;14.87;7.10;;;;;;;;;;5021139;28;20226;-66
2022/03/01 04:34:29;;;;;;;16.77;8.37;;;;;;;;;;5029559;28;20178;-66
2022/03/01 04:36:54;;;;;;;15.13;7.60;;;;;;;;;;5026363;28;20194;-66
2022/03/01 04:39:20;;;;;;;16.10;7.87;;;;;;;;;;5025353;28;20532;-66
2022/03/01 04:41:46;;;;;;;15.60;8.03;;;;;;;;;;5029570;28;20244;-66
2022/03/01 04:44:11;;;;;;;16.37;7.47;;;;;;;;;;5027787;28;20197;-65
2022/03/01 04:46:37;;;;;;;13.87;8.13;;;;;;;;;;5025115;28;20249;-66
2022/03/01 04:49:03;;;;;;;18.40;8.57;;;;;;;;;;5022585;28;20183;-67
2022/03/01 04:51:29;;;;;;;15.87;7.53;;;;;;;;;;5025986;28;20669;-67
2022/03/01 04:53:54;;;;;;;16.50;7.83;;;;;;;;;;5024160;28;20190;-67
2022/03/01 04:56:20;;;;;;;15.17;7.87;;;;;;;;;;5027516;28;20194;-67
2022/03/01 04:58:45;;;;;;;17.27;8.77;;;;;;;;;;5026229;28;20188;-67
2022/03/01 05:01:11;;;;;;;17.00;8.80;;;;;;;;;;5019579;28;20698;-67
2022/03/01 05:03:36;;;;;;;18.70;8.67;;;;;;;;;;5026617;28;20273;-67
2022/03/01 05:06:02;;;;;;;17.63;8.33;;;;;;;;;;5025247;28;20728;-67
2022/03/01 05:08:30;;;;;;;15.23;7.80;;;;;;;;;;5026868;28;20178;-67
2022/03/01 05:10:57;;;;;;;18.77;7.90;;;;;;;;;;5026146;28;20245;-67
2022/03/01 05:13:22;;;;;;;18.27;8.10;;;;;;;;;;5027320;28;20197;-67
2022/03/01 05:15:48;;;;;;;18.97;9.00;;;;;;;;;;5035149;28;20631;-67
2022/03/01 05:18:13;;;;;;;18.97;9.13;;;;;;;;;;5034374;28;20189;-67
2022/03/01 05:20:38;;;;;;;15.27;7.80;;;;;;;;;;5028681;28;20568;-67
2022/03/01 05:23:04;;;;;;;19.97;8.47;;;;;;;;;;5035292;28;20185;-67
2022/03/01 05:25:29;;;;;;;16.83;8.47;;;;;;;;;;5025467;28;20196;-67
2022/03/01 05:27:54;;;;;;;18.60;8.30;;;;;;;;;;5027836;28;20182;-67
2022/03/01 05:30:22;;;;;;;15.20;8.10;;;;;;;;;;5022072;28;20226;-67
2022/03/01 05:32:50;;;;;;;15.80;8.20;;;;;;;;;;5026866;28;20264;-67
2022/03/01 05:35:17;;;;;;;17.33;8.73;;;;;;;;;;5023770;28;20530;-67
2022/03/01 05:37:44;;;;;;;16.23;8.07;;;;;;;;;;5021343;28;20198;-67
2022/03/01 05:40:12;;;;;;;15.03;8.40;;;;;;;;;;5023001;28;20190;-67
2022/03/01 05:42:38;;;;;;;15.67;8.17;;;;;;;;;;5025556;28;20181;-67
2022/03/01 05:45:04;;;;;;;18.17;8.57;;;;;;;;;;5024844;28;20240;-66
2022/03/01 05:47:29;;;;;;;18.53;8.67;;;;;;;;;;5025421;28;20186;-67
2022/03/01 05:49:55;;;;;;;15.67;8.17;;;;;;;;;;5033669;28;20189;-67
2022/03/01 05:52:21;;;;;;;16.43;7.90;;;;;;;;;;5033234;28;20197;-66
2022/03/01 05:54:46;;;;;;;16.83;8.43;;;;;;;;;;5024473;28;20356;-66
2022/03/01 05:57:12;;;;;;;18.07;8.50;;;;;;;;;;5022339;28;20197;-66
2022/03/01 05:59:37;;;;;;;16.97;8.37;;;;;;;;;;5023663;28;20185;-67
2022/03/01 06:02:03;;;;;;;17.63;9.03;;;;;;;;;;5021813;28;20639;-67
2022/03/01 06:04:28;;;;;;;18.13;8.93;;;;;;;;;;5022054;28;20566;-67
2022/03/01 06:06:53;;;;;;;16.43;8.80;;;;;;;;;;5033506;28;20209;-67
2022/03/01 06:09:19;;;;;;;18.63;9.20;;;;;;;;;;5021585;28;20675;-66
2022/03/01 06:11:44;;;;;;;17.83;9.00;;;;;;;;;;5029035;28;20359;-66
2022/03/01 06:14:10;;;;;;;17.90;9.80;;;;;;;;;;5015715;28;20186;-67
2022/03/01 06:16:35;;;;;;;16.33;8.70;;;;;;;;;;5023219;28;20421;-66
2022/03/01 06:19:01;;;;;;;18.80;9.33;;;;;;;;;;5020494;28;20192;-66
2022/03/01 06:21:26;;;;;;;16.53;9.27;;;;;;;;;;5024917;28;20219;-66
2022/03/01 06:23:52;;;;;;;18.43;8.87;;;;;;;;;;5018375;28;20313;-67
2022/03/01 06:26:17;;;;;;;19.63;9.20;;;;;;;;;;5021799;28;20952;-67
2022/03/01 06:28:43;;;;;;;17.50;8.80;;;;;;;;;;5031868;28;20266;-66
2022/03/01 06:31:08;;;;;;;16.10;8.57;;;;;;;;;;5020895;28;20218;-67
2022/03/01 06:33:33;;;;;;;19.80;8.73;;;;;;;;;;5022627;28;20220;-66
2022/03/01 06:35:59;;;;;;;17.33;9.67;;;;;;;;;;5025315;28;20652;-66
2022/03/01 06:38:25;;;;;;;18.80;9.40;;;;;;;;;;5030368;28;20189;-68
2022/03/01 06:40:55;;;;;;;18.17;9.40;;;;;;;;;;5029217;28;20186;-66
2022/03/01 06:43:21;;;;;;;20.10;9.30;;;;;;;;;;5027622;28;20205;-66
2022/03/01 06:45:46;;;;;;;19.83;9.77;;;;;;;;;;5026671;28;20198;-69
2022/03/01 06:48:12;;;;;;;19.73;9.77;;;;;;;;;;5030626;28;20186;-67
2022/03/01 06:50:37;;;;;;;19.37;9.50;;;;;;;;;;5034153;28;20196;-66
2022/03/01 06:53:03;;;;;;;18.13;9.03;;;;;;;;;;5033686;28;20221;-66
2022/03/01 06:55:28;;;;;;;18.17;8.73;;;;;;;;;;5030173;28;20178;-66
2022/03/01 06:57:55;;;;;;;16.83;8.93;;;;;;;;;;5030575;28;20223;-66
2022/03/01 07:00:20;;;;;;;15.90;8.17;;;;;;;;;;5023138;28;20630;-67
2022/03/01 07:02:45;;;;;;;18.63;9.63;;;;;;;;;;5020307;28;20268;-67
2022/03/01 07:05:13;;;;;;;17.87;8.83;;;;;;;;;;5038302;28;20185;-67
2022/03/01 07:07:39;;;;;;;14.73;8.47;;;;;;;;;;5030526;28;20248;-67
2022/03/01 07:10:06;;;;;;;17.50;9.10;;;;;;;;;;5031263;28;20185;-67
2022/03/01 07:12:31;;;;;;;14.80;8.03;;;;;;;;;;5024081;28;20212;-67
2022/03/01 07:14:56;;;;;;;16.90;8.00;;;;;;;;;;5030333;28;20185;-66
2022/03/01 07:17:22;;;;;;;17.47;8.63;;;;;;;;;;5025048;28;20190;-67
2022/03/01 07:19:48;;;;;;;17.40;8.87;;;;;;;;;;5025706;28;20269;-67
2022/03/01 07:22:14;;;;;;;17.70;8.27;;;;;;;;;;5024151;28;20280;-67
2022/03/01 07:24:39;;;;;;;16.33;8.73;;;;;;;;;;5024565;28;20637;-67
2022/03/01 07:27:05;;;;;;;19.37;8.97;;;;;;;;;;5023500;28;20243;-67
2022/03/01 07:29:30;;;;;;;17.67;8.47;;;;;;;;;;5025782;28;20186;-67
2022/03/01 07:31:57;;;;;;;16.27;8.13;;;;;;;;;;5020238;28;20242;-66
2022/03/01 07:34:22;;;;;;;18.07;8.73;;;;;;;;;;5023776;28;20197;-67
2022/03/01 07:36:49;;;;;;;14.93;8.33;;;;;;;;;;5026421;28;20186;-67
2022/03/01 07:39:14;;;;;;;17.53;7.90;;;;;;;;;;5026726;28;20190;-67
2022/03/01 07:41:39;;;;;;;15.00;8.00;;;;;;;;;;5029840;28;20653;-67
2022/03/01 07:44:05;;;;;;;15.50;7.83;;;;;;;;;;5028568;28;20194;-67
2022/03/01 07:46:30;;;;;;;17.40;8.27;;;;;;;;;;5026595;28;20212;-67
2022/03/01 07:48:56;;;;;;;15.13;7.53;;;;;;;;;;5022360;28;20339;-67
2022/03/01 07:51:21;;;;;;;14.83;7.67;;;;;;;;;;5028798;28;20209;-67
2022/03/01 07:53:46;;;;;;;12.53;7.20;;;;;;;;;;5024487;28;20209;-67
2022/03/01 07:56:13;;;;;;;19.43;8.33;;;;;;;;;;5026672;28;20244;-67
2022/03/01 07:58:38;;;;;;;16.27;8.20;;;;;;;;;;5025468;28;20200;-67
2022/03/01 08:01:04;;;;;;;14.27;7.13;;;;;;;;;;5034202;28;20633;-67
2022/03/01 08:03:29;;;;;;;15.53;7.57;;;;;;;;;;5023038;28;20186;-67
2022/03/01 08:05:54;;;;;;;15.63;8.10;;;;;;;;;;5022607;28;20190;-67
2022/03/01 08:08:20;;;;;;;13.07;7.43;;;;;;;;;;5026050;28;20293;-67
2022/03/01 08:10:45;;;;;;;13.57;7.60;;;;;;;;;;5029803;28;20268;-67
2022/03/01 08:13:11;;;;;;;13.23;7.63;;;;;;;;;;5024808;28;20202;-66
2022/03/01 08:15:38;;;;;;;15.17;7.83;;;;;;;;;;5023682;28;20243;-67
2022/03/01 08:18:03;;;;;;;13.20;7.13;;;;;;;;;;5023572;28;20564;-66
2022/03/01 08:20:29;;;;;;;13.67;7.83;;;;;;;;;;5030064;28;20260;-67
2022/03/01 08:22:54;;;;;;;15.47;7.80;;;;;;;;;;5025624;28;20205;-67
2022/03/01 08:25:20;;;;;;;12.83;8.03;;;;;;;;;;5027869;28;20214;-67
2022/03/01 08:27:46;;;;;;;14.50;7.80;;;;;;;;;;5031179;28;20170;-66
2022/03/01 08:30:12;;;;;;;13.97;7.13;;;;;;;;;;5029794;28;20638;-66
2022/03/01 08:32:38;;;;;;;18.37;7.53;;;;;;;;;;5029053;28;20209;-65
2022/03/01 08:35:04;;;;;;;13.80;7.67;;;;;;;;;;5024100;28;20259;-66
2022/03/01 08:37:29;;;;;;;16.97;8.50;;;;;;;;;;5024454;28;20634;-66
2022/03/01 08:39:55;;;;;;;12.53;7.77;;;;;;;;;;5022556;28;20190;-66
2022/03/01 08:42:20;;;;;;;15.03;7.57;;;;;;;;;;5024212;28;20174;-66
2022/03/01 08:44:45;;;;;;;15.57;7.87;;;;;;;;;;5025141;28;20171;-66
2022/03/01 08:47:11;;;;;;;13.87;7.67;;;;;;;;;;5028032;28;20193;-66
2022/03/01 08:49:36;;;;;;;17.37;7.97;;;;;;;;;;5020411;28;20618;-66
2022/03/01 08:52:02;;;;;;;17.90;8.63;;;;;;;;;;5032438;28;20208;-66
2022/03/01 08:54:27;;;;;;;13.50;7.13;;;;;;;;;;5027558;28;20222;-66
2022/03/01 08:56:52;;;;;;;16.47;8.30;;;;;;;;;;5019501;28;20578;-66
2022/03/01 08:59:18;;;;;;;14.07;7.60;;;;;;;;;;5025234;28;20190;-66
2022/03/01 09:01:44;;;;;;;14.53;7.97;;;;;;;;;;5028306;28;20244;-67
2022/03/01 09:04:09;;;;;;;15.13;7.80;;;;;;;;;;5021776;28;20194;-67
2022/03/01 09:06:35;;;;;;;15.80;7.97;;;;;;;;;;5027429;28;20583;-66
2022/03/01 09:09:00;;;;;;;15.20;7.43;;;;;;;;;;5025176;28;20566;-66
2022/03/01 09:11:25;;;;;;;17.07;8.30;;;;;;;;;;5025100;28;20572;-66
2022/03/01 09:13:51;;;;;;;16.83;8.10;;;;;;;;;;5020832;28;20194;-66
2022/03/01 09:16:16;;;;;;;15.67;8.13;;;;;;;;;;5030379;28;21351;-66
2022/03/01 09:18:42;;;;;;;13.63;7.87;;;;;;;;;;5028664;28;20591;-66
2022/03/01 09:21:07;;;;;;;14.07;7.67;;;;;;;;;;5021501;28;20200;-66
2022/03/01 09:23:33;;;;;;;14.37;7.87;;;;;;;;;;5028876;28;20174;-66
2022/03/01 09:25:59;;;;;;;20.77;8.70;;;;;;;;;;5015907;28;20281;-66
2022/03/01 09:28:24;;;;;;;14.40;8.10;;;;;;;;;;5035410;28;20455;-66
2022/03/01 09:30:50;;;;;;;15.00;8.00;;;;;;;;;;5022194;28;20400;-66
2022/03/01 09:33:16;;;;;;;16.73;8.63;;;;;;;;;;5026866;28;20562;-66
2022/03/01 09:35:41;;;;;;;11.57;7.17;;;;;;;;;;5022156;28;20636;-66
2022/03/01 09:38:07;;;;;;;16.57;8.47;;;;;;;;;;5026882;28;20181;-66
2022/03/01 09:40:32;;;;;;;13.53;7.50;;;;;;;;;;5023964;28;20198;-66
2022/03/01 09:42:58;;;;;;;16.80;7.70;;;;;;;;;;5028349;28;20186;-66
2022/03/01 09:45:23;;;;;;;13.67;8.07;;;;;;;;;;5021281;28;20629;-66
2022/03/01 09:47:49;;;;;;;13.40;7.80;;;;;;;;;;5034841;28;20182;-66
2022/03/01 09:50:15;;;;;;;14.57;7.53;;;;;;;;;;5023958;28;20194;-66
2022/03/01 09:52:42;;;;;;;14.87;7.80;;;;;;;;;;5027265;28;20206;-66
2022/03/01 09:55:09;;;;;;;17.77;8.10;;;;;;;;;;5023146;28;20209;-66
2022/03/01 09:57:34;;;;;;;14.27;7.93;;;;;;;;;;5025397;28;20201;-66
2022/03/01 09:59:59;;;;;;;13.52;7.30;;;;;;;;;;5022013;28;20626;-66
2022/03/01 10:02:35;;;;;;;14.53;8.23;;;;;;;;;;5025608;28;20344;-66
2022/03/01 10:05:04;;;;;;;14.00;7.50;;;;;;;;;;5019850;28;20194;-67
2022/03/01 10:07:30;;;;;;;13.50;8.27;;;;;;;;;;5028032;28;20193;-65
2022/03/01 10:10:16;;;;;;;14.77;8.27;;;;;;;;;;5024196;28;20224;-66
2022/03/01 10:12:52;;;;;;;16.17;7.70;;;;;;;;;;5025580;28;20229;-65
2022/03/01 10:15:17;;;;;;;15.10;7.63;;;;;;;;;;5022730;28;20598;-65
2022/03/01 10:17:44;;;;;;;14.43;8.30;;;;;;;;;;5022831;28;20427;-66
2022/03/01 10:20:18;;;;;;;17.17;7.85;;;;;;;;;;5022976;28;20173;-66
2022/03/01 10:22:49;;;;;;;18.45;8.20;;;;;;;;;;5024634;28;20682;-67
2022/03/01 10:25:19;;;;;;;17.10;8.43;;;;;;;;;;5021690;28;20252;-67
2022/03/01 10:27:47;;;;;;;14.82;8.27;;;;;;;;;;5022898;28;20182;-67
2022/03/01 10:30:22;;;;;;;13.07;7.70;;;;;;;;;;5024710;28;20528;-66
2022/03/01 10:32:48;;;;;;;13.27;7.72;;;;;;;;;;5025723;28;20210;-66
2022/03/01 10:35:13;;;;;;;14.88;8.85;;;;;;;;;;5024349;28;20202;-67
2022/03/01 10:37:40;;;;;;;17.92;8.75;;;;;;;;;;5025411;28;20188;-67
2022/03/01 10:40:13;;;;;;;12.68;7.25;;;;;;;;;;5024900;28;20243;-66
2022/03/01 10:42:38;;;;;;;15.43;8.18;;;;;;;;;;5023192;28;20253;-67
2022/03/01 10:45:06;;;;;;;12.40;8.13;;;;;;;;;;5023789;28;20339;-67
2022/03/01 10:47:32;;;;;;;19.63;8.87;;;;;;;;;;5024131;28;20249;-67
2022/03/01 10:50:16;;;;;;;14.98;7.95;;;;;;;;;;5024552;28;20206;-65
2022/03/01 10:52:42;;;;;;;16.75;8.27;;;;;;;;;;5031295;28;20280;-66
2022/03/01 10:55:29;;;;;;;16.67;8.53;;;;;;;;;;5021294;28;20674;-66
2022/03/01 10:57:58;;;;;;;15.85;8.70;;;;;;;;;;5042497;28;20281;-66
2022/03/01 11:00:24;;;;;;;14.38;8.30;;;;;;;;;;5022757;28;20259;-66
2022/03/01 11:02:50;;;;;;;16.08;8.77;;;;;;;;;;5019548;28;20216;-66
2022/03/01 11:05:15;;;;;;;19.10;9.02;;;;;;;;;;5022213;28;20221;-66
2022/03/01 11:07:43;;;;;;;13.55;8.40;;;;;;;;;;5027829;28;20228;-67
2022/03/01 11:10:12;;;;;;;16.35;8.20;;;;;;;;;;5017505;28;20214;-67
2022/03/01 11:12:39;;;;;;;16.42;9.18;;;;;;;;;;5015934;28;20292;-67
2022/03/01 11:15:26;;;;;;;13.15;8.45;;;;;;;;;;5023049;28;20652;-67
2022/03/01 11:18:12;;;;;;;14.43;8.05;;;;;;;;;;5023832;28;20198;-67
2022/03/01 11:20:44;;;;;;;14.95;8.60;;;;;;;;;;5027010;28;20181;-67
2022/03/01 11:23:12;;;;;;;15.60;8.05;;;;;;;;;;5025526;28;20217;-67
2022/03/01 11:25:46;;;;;;;15.45;8.55;;;;;;;;;;5028687;28;20196;-66
2022/03/01 11:28:12;;;;;;;14.23;7.68;;;;;;;;;;5025218;28;20197;-66
2022/03/01 11:30:40;;;;;;;14.77;8.65;;;;;;;;;;5027549;28;20694;-66
2022/03/01 11:33:06;;;;;;;15.45;8.52;;;;;;;;;;5027571;28;20234;-66
2022/03/01 11:35:34;;;;;;;15.65;8.57;;;;;;;;;;5030162;28;20668;-66
2022/03/01 11:38:13;;;;;;;15.48;8.18;;;;;;;;;;5027447;28;20209;-66
2022/03/01 11:40:41;;;;;;;17.27;9.25;;;;;;;;;;5028615;28;20214;-66
2022/03/01 11:43:09;;;;;;;13.90;8.00;;;;;;;;;;5023873;28;20178;-66
2022/03/01 11:45:35;;;;;;;15.43;8.32;;;;;;;;;;5028951;28;20277;-66
2022/03/01 11:48:06;;;;;;;15.75;9.38;;;;;;;;;;5022624;28;20254;-67
2022/03/01 11:50:32;;;;;;;13.93;8.88;;;;;;;;;;5023346;28;20194;-67
2022/03/01 11:53:02;;;;;;;14.35;8.18;;;;;;;;;;5028437;28;20590;-67
2022/03/01 11:55:40;;;;;;;14.70;8.13;;;;;;;;;;5025741;28;20201;-68
2022/03/01 11:58:07;;;;;;;17.15;8.57;;;;;;;;;;5033921;28;20260;-67
2022/03/01 12:00:34;;;;;;;17.45;8.77;;;;;;;;;;5028044;28;20186;-67
2022/03/01 12:03:00;;;;;;;15.88;8.85;;;;;;;;;;5040042;28;20181;-67
2022/03/01 12:05:27;;;;;;;14.80;9.75;;;;;;;;;;5028361;28;20536;-67
2022/03/01 12:07:53;;;;;;;15.50;9.13;;;;;;;;;;5040310;28;20251;-67
2022/03/01 12:10:24;;;;;;;20.52;9.35;;;;;;;;;;5024395;28;20196;-67
2022/03/01 12:12:53;;;;;;;15.00;9.18;;;;;;;;;;5026153;28;20206;-67
2022/03/01 12:15:30;;;;;;;15.30;8.85;;;;;;;;;;5022733;28;20769;-67
2022/03/01 12:17:58;;;;;;;18.27;9.75;;;;;;;;;;5024911;28;20214;-67
2022/03/01 12:20:24;;;;;;;14.88;8.70;;;;;;;;;;5024053;28;20181;-66
2022/03/01 12:22:59;;;;;;;14.95;9.10;;;;;;;;;;5027456;28;20186;-67
2022/03/01 12:25:27;;;;;;;17.33;9.20;;;;;;;;;;5024709;28;20753;-67
2022/03/01 12:27:53;;;;;;;19.40;9.48;;;;;;;;;;5025055;28;20182;-67
2022/03/01 12:30:22;;;;;;;17.00;9.23;;;;;;;;;;5026042;28;20304;-67
2022/03/01 12:32:55;;;;;;;13.57;8.95;;;;;;;;;;5023264;28;20236;-66
2022/03/01 12:35:22;;;;;;;17.23;9.60;;;;;;;;;;5025136;28;20208;-66
2022/03/01 12:37:49;;;;;;;16.52;9.52;;;;;;;;;;5026713;28;20190;-68
2022/03/01 12:40:24;;;;;;;16.02;9.15;;;;;;;;;;5025982;28;20257;-66
2022/03/01 12:42:50;;;;;;;14.90;9.85;;;;;;;;;;5024631;28;20210;-66
2022/03/01 12:45:15;;;;;;;14.68;8.85;;;;;;;;;;5027814;28;20216;-66
2022/03/01 12:47:42;;;;;;;15.27;9.40;;;;;;;;;;5026390;28;20285;-66
2022/03/01 12:50:17;;;;;;;18.02;9.30;;;;;;;;;;5030450;28;20697;-66
2022/03/01 12:52:55;;;;;;;15.73;9.05;;;;;;;;;;5020833;28;20236;-66
2022/03/01 12:55:21;;;;;;;17.58;9.48;;;;;;;;;;5021366;28;20248;-66
2022/03/01 12:57:47;;;;;;;18.88;10.10;;;;;;;;;;5028838;28;20194;-66
2022/03/01 13:00:13;;;;;;;20.55;9.95;;;;;;;;;;5026245;28;20671;-66
2022/03/01 13:02:38;;;;;;;16.13;9.25;;;;;;;;;;5027658;28;20218;-67
2022/03/01 13:05:09;;;;;;;16.98;9.45;;;;;;;;;;5026946;28;20199;-67
2022/03/01 13:07:34;;;;;;;13.65;8.60;;;;;;;;;;5026300;28;20320;-67
2022/03/01 13:10:01;;;;;;;15.77;9.18;;;;;;;;;;5027746;28;20653;-66
2022/03/01 13:12:26;;;;;;;18.38;9.65;;;;;;;;;;5029121;28;20532;-66
2022/03/01 13:14:55;;;;;;;14.73;9.00;;;;;;;;;;5022117;28;20178;-66
2022/03/01 13:17:21;;;;;;;14.88;9.30;;;;;;;;;;5024263;28;20281;-66
2022/03/01 13:19:46;;;;;;;16.48;9.63;;;;;;;;;;5024606;28;20277;-66
2022/03/01 13:22:12;;;;;;;15.32;9.38;;;;;;;;;;5026841;28;20198;-66
2022/03/01 13:24:50;;;;;;;16.25;9.35;;;;;;;;;;5022373;28;20186;-67
2022/03/01 13:27:18;;;;;;;17.80;10.43;;;;;;;;;;5016600;28;20189;-67
2022/03/01 13:29:44;;;;;;;16.45;9.02;;;;;;;;;;5025406;28;20186;-67
2022/03/01 13:32:21;;;;;;;16.77;10.25;;;;;;;;;;5017141;28;20772;-67
2022/03/01 13:34:52;;;;;;;15.57;9.00;;;;;;;;;;5023673;28;20568;-67
2022/03/01 13:37:19;;;;;;;13.80;9.23;;;;;;;;;;5018666;28;20194;-67
2022/03/01 13:39:48;;;;;;;16.40;10.00;;;;;;;;;;5021252;28;20570;-67
2022/03/01 13:42:16;;;;;;;15.43;8.60;;;;;;;;;;5017465;28;20217;-67
2022/03/01 13:44:45;;;;;;;17.90;9.77;;;;;;;;;;5026243;28;20197;-67
2022/03/01 13:47:19;;;;;;;17.85;10.13;;;;;;;;;;5022373;28;20210;-67
2022/03/01 13:50:06;;;;;;;16.60;9.25;;;;;;;;;;5024972;28;20631;-67
2022/03/01 13:52:40;;;;;;;15.70;9.38;;;;;;;;;;5023146;28;20206;-67
2022/03/01 13:55:19;;;;;;;16.38;9.50;;;;;;;;;;5028584;28;20193;-67
2022/03/01 13:57:50;;;;;;;14.75;9.05;;;;;;;;;;5022274;28;20297;-66
2022/03/01 14:00:20;;;;;;;16.92;9.43;;;;;;;;;;5026101;28;20201;-67
2022/03/01 14:02:56;;;;;;;16.38;10.00;;;;;;;;;;5029406;28;20194;-66
2022/03/01 14:05:23;;;;;;;16.75;9.60;;;;;;;;;;5031417;28;20324;-66
2022/03/01 14:08:08;;;;;;;16.98;10.35;;;;;;;;;;5019420;28;20213;-67
2022/03/01 14:10:36;;;;;;;17.92;9.35;;;;;;;;;;5022079;28;20335;-66
2022/03/01 14:13:04;;;;;;;19.55;10.43;;;;;;;;;;5035557;28;20274;-66
2022/03/01 14:15:41;;;;;;;19.17;10.45;;;;;;;;;;5024204;28;20190;-66
2022/03/01 14:18:07;;;;;;;16.17;10.20;;;;;;;;;;5031065;28;20193;-66
2022/03/01 14:20:33;;;;;;;17.08;9.55;;;;;;;;;;5027622;28;20220;-67
2022/03/01 14:22:59;;;;;;;19.13;9.95;;;;;;;;;;5036288;28;20803;-67
2022/03/01 14:25:25;;;;;;;18.90;10.88;;;;;;;;;;5028716;28;20198;-67
2022/03/01 14:27:50;;;;;;;15.27;9.77;;;;;;;;;;5036098;28;20217;-67
2022/03/01 14:30:16;;;;;;;18.95;10.30;;;;;;;;;;5022444;28;20233;-67